createdAt,value
2022-11-24T00:02:49.006Z,7.70
2022-11-24T00:07:52.498Z,7.60
2022-11-24T00:12:57.262Z,7.60
2022-11-24T00:18:03.580Z,7.60
2022-11-24T00:23:08.904Z,7.70
2022-11-24T00:28:14.212Z,7.80
2022-11-24T00:33:19.149Z,7.70
2022-11-24T00:38:24.375Z,7.70
2022-11-24T00:43:29.363Z,7.70
2022-11-24T00:48:34.215Z,7.70
2022-11-24T00:54:09.290Z,7.70
2022-11-24T00:59:15.109Z,7.80
2022-11-24T01:04:18.640Z,7.70
2022-11-24T01:09:22.171Z,7.70
2022-11-24T01:14:28.634Z,7.60
2022-11-24T01:19:31.962Z,7.60
2022-11-24T01:24:39.931Z,7.50
2022-11-24T01:29:44.986Z,7.40
2022-11-24T01:34:48.285Z,7.50
2022-11-24T01:39:55.366Z,7.50
2022-11-24T01:45:41.338Z,7.60
2022-11-24T01:50:46.364Z,7.60
2022-11-24T01:55:50.834Z,7.70
2022-11-24T02:00:55.444Z,7.70
2022-11-24T02:06:02.365Z,7.80
2022-11-24T02:11:07.914Z,7.80
2022-11-24T02:16:14.688Z,7.90
2022-11-24T02:21:23.947Z,7.80
2022-11-24T02:26:41.534Z,7.90
2022-11-24T02:31:48.304Z,8.00
2022-11-24T02:36:52.578Z,8.00
2022-11-24T02:42:07.513Z,8.00
2022-11-24T02:47:47.222Z,8.10
2022-11-24T02:59:46.979Z,8.20
2022-11-24T03:04:50.609Z,8.30
2022-11-24T03:09:53.900Z,8.30
2022-11-24T03:14:58.817Z,8.30
2022-11-24T03:20:05.621Z,8.30
2022-11-24T03:25:09.923Z,8.30
2022-11-24T03:30:15.900Z,8.40
2022-11-24T03:35:19.296Z,8.40
2022-11-24T03:40:22.733Z,8.40
2022-11-24T03:45:46.349Z,8.40
2022-11-24T03:51:00.128Z,8.50
2022-11-24T03:56:07.956Z,8.50
2022-11-24T04:01:14.041Z,8.50
2022-11-24T04:06:17.534Z,8.50
2022-11-24T04:11:40.691Z,8.40
2022-11-24T04:16:45.255Z,8.30
2022-11-24T04:21:49.379Z,8.20
2022-11-24T04:26:52.863Z,8.30
2022-11-24T04:31:58.359Z,8.30
2022-11-24T04:37:01.486Z,8.20
2022-11-24T04:42:04.799Z,8.10
2022-11-24T04:47:13.313Z,8.10
2022-11-24T04:52:49.201Z,8.00
2022-11-24T04:57:52.571Z,7.90
2022-11-24T05:02:58.463Z,7.90
2022-11-24T05:08:02.548Z,7.80
2022-11-24T05:13:07.322Z,7.80
2022-11-24T05:18:15.335Z,7.80
2022-11-24T05:23:20.523Z,7.70
2022-11-24T05:28:24.088Z,7.60
2022-11-24T05:33:33.663Z,7.60
2022-11-24T05:38:38.684Z,7.70
2022-11-24T05:43:42.155Z,7.70
2022-11-24T05:48:47.092Z,7.70
2022-11-24T05:53:51.057Z,7.80
2022-11-24T05:58:54.221Z,7.80
2022-11-24T06:03:59.459Z,7.80
2022-11-24T06:09:05.185Z,7.80
2022-11-24T06:14:11.279Z,7.70
2022-11-24T06:19:18.551Z,7.70
2022-11-24T06:24:23.438Z,7.70
2022-11-24T06:29:28.302Z,7.70
2022-11-24T06:34:33.452Z,7.70
2022-11-24T06:39:42.344Z,7.70
2022-11-24T06:44:49.010Z,7.70
2022-11-24T06:49:54.269Z,7.70
2022-11-24T06:55:03.227Z,7.70
2022-11-24T07:00:08.302Z,7.80
2022-11-24T07:05:14.120Z,7.80
2022-11-24T07:10:26.009Z,7.90
2022-11-24T07:15:37.047Z,7.80
2022-11-24T07:20:42.355Z,7.90
2022-11-24T07:25:48.997Z,7.90
2022-11-24T07:30:52.881Z,7.90
2022-11-24T07:36:04.138Z,7.90
2022-11-24T07:41:08.331Z,7.90
2022-11-24T07:46:13.291Z,7.90
2022-11-24T07:51:21.289Z,7.90
2022-11-24T07:56:33.397Z,8.00
2022-11-24T08:01:36.693Z,8.10
2022-11-24T08:06:47.057Z,8.20
2022-11-24T08:11:56.812Z,8.20
2022-11-24T08:17:01.863Z,8.20
2022-11-24T08:22:06.937Z,8.40
2022-11-24T08:27:10.583Z,8.30
2022-11-24T08:32:21.763Z,8.40
2022-11-24T08:37:27.803Z,8.50
2022-11-24T08:42:30.969Z,9.20
2022-11-24T08:47:35.519Z,9.10
2022-11-24T08:52:40.545Z,8.90
2022-11-24T08:57:43.807Z,8.70
2022-11-24T09:02:46.907Z,9.00
2022-11-24T09:07:52.941Z,8.90
2022-11-24T09:12:57.371Z,8.80
2022-11-24T09:18:02.391Z,8.90
2022-11-24T09:23:08.572Z,9.10
2022-11-24T09:28:12.304Z,9.30
2022-11-24T09:33:16.512Z,9.10
2022-11-24T09:38:22.681Z,9.10
2022-11-24T09:43:27.808Z,9.10
2022-11-24T09:48:33.196Z,9.20
2022-11-24T09:53:39.253Z,9.20
2022-11-24T09:58:50.709Z,9.40
2022-11-24T10:03:54.382Z,9.20
2022-11-24T10:09:23.611Z,9.10
2022-11-24T10:14:53.834Z,10.50
2022-11-24T10:20:00.261Z,10.80
2022-11-24T10:25:10.935Z,11.60
2022-11-24T10:30:24.105Z,11.40
2022-11-24T10:35:30.657Z,11.80
2022-11-24T10:40:56.468Z,11.30
2022-11-24T10:46:03.949Z,10.70
2022-11-24T10:51:31.562Z,10.30
2022-11-24T10:56:42.174Z,10.00
2022-11-24T11:01:46.756Z,10.10
2022-11-24T11:06:52.047Z,10.10
2022-11-24T11:11:59.149Z,10.30
2022-11-24T11:17:33.529Z,10.60
2022-11-24T11:22:38.652Z,12.10
2022-11-24T11:27:43.736Z,11.10
2022-11-24T11:38:16.770Z,11.50
2022-11-24T11:58:11.450Z,11.30
2022-11-24T12:03:46.644Z,10.10
2022-11-24T12:09:19.154Z,10.30
2022-11-24T12:14:24.400Z,10.40
2022-11-24T12:19:36.929Z,10.70
2022-11-24T12:24:48.959Z,11.10
2022-11-24T12:30:05.327Z,11.00
2022-11-24T12:35:16.071Z,10.70
2022-11-24T12:40:29.865Z,10.60
2022-11-24T12:45:35.698Z,11.50
2022-11-24T12:50:39.916Z,12.50
2022-11-24T12:55:47.653Z,12.40
2022-11-24T13:01:02.830Z,12.60
2022-11-24T13:06:12.105Z,12.40
2022-11-24T13:11:45.398Z,13.00
2022-11-24T13:17:28.795Z,14.00
2022-11-24T13:22:37.750Z,13.70
2022-11-24T13:27:52.414Z,11.90
2022-11-24T13:33:03.945Z,11.40
2022-11-24T13:38:40.875Z,11.20
2022-11-24T13:44:02.176Z,10.50
2022-11-24T13:49:08.488Z,10.50
2022-11-24T13:54:11.814Z,11.60
2022-11-24T13:59:19.360Z,11.80
2022-11-24T14:04:33.128Z,10.80
2022-11-24T14:09:43.478Z,10.70
2022-11-24T14:14:47.535Z,10.70
2022-11-24T14:19:54.057Z,10.40
2022-11-24T14:24:58.712Z,11.80
2022-11-24T14:30:02.860Z,12.10
2022-11-24T14:35:22.173Z,12.00
2022-11-24T14:40:41.667Z,11.40
2022-11-24T14:45:50.554Z,10.40
2022-11-24T14:50:58.582Z,10.30
2022-11-24T14:56:09.731Z,10.40
2022-11-24T15:01:21.018Z,10.10
2022-11-24T15:06:26.087Z,10.00
2022-11-24T15:11:31.066Z,10.20
2022-11-24T15:16:34.354Z,10.10
2022-11-24T15:21:39.753Z,10.30
2022-11-24T15:26:44.417Z,10.40
2022-11-24T15:31:52.581Z,10.10
2022-11-24T15:37:00.884Z,9.80
2022-11-24T15:42:07.651Z,9.50
2022-11-24T15:47:12.082Z,9.30
2022-11-24T15:52:18.422Z,9.30
2022-11-24T15:57:21.790Z,9.30
2022-11-24T16:02:25.709Z,9.40
2022-11-24T16:07:32.025Z,9.30
2022-11-24T16:12:36.548Z,9.50
2022-11-24T16:17:41.410Z,9.40
2022-11-24T16:22:46.647Z,9.60
2022-11-24T16:27:53.274Z,9.50
2022-11-24T16:32:57.503Z,9.30
2022-11-24T16:38:03.537Z,9.20
2022-11-24T16:43:10.133Z,9.00
2022-11-24T16:48:14.092Z,8.80
2022-11-24T16:53:19.213Z,8.70
2022-11-24T16:58:22.722Z,9.00
2022-11-24T17:03:26.456Z,8.90
2022-11-24T17:08:36.736Z,8.90
2022-11-24T17:13:41.152Z,8.70
2022-11-24T17:18:44.651Z,8.60
2022-11-24T17:23:49.933Z,8.60
2022-11-24T17:28:55.957Z,8.30
2022-11-24T17:34:00.383Z,8.30
2022-11-24T17:39:08.604Z,8.50
2022-11-24T17:44:12.893Z,8.10
2022-11-24T17:49:16.308Z,7.90
2022-11-24T17:54:45.221Z,8.30
2022-11-24T17:59:46.305Z,8.70
2022-11-24T18:04:50.147Z,8.60
2022-11-24T18:09:54.911Z,8.30
2022-11-24T18:15:00.102Z,8.40
2022-11-24T18:20:06.027Z,8.10
2022-11-24T18:25:11.228Z,8.10
2022-11-24T18:30:16.365Z,7.70
2022-11-24T18:35:19.957Z,8.00
2022-11-24T18:40:25.331Z,8.10
2022-11-24T18:45:35.022Z,8.10
2022-11-24T18:50:38.077Z,7.90
2022-11-24T18:55:43.539Z,7.60
2022-11-24T19:00:46.951Z,7.50
2022-11-24T19:05:50.468Z,7.40
2022-11-24T19:10:55.390Z,7.20
2022-11-24T19:16:00.372Z,7.20
2022-11-24T19:21:04.028Z,7.20
2022-11-24T19:26:10.793Z,7.00
2022-11-24T19:31:16.021Z,7.20
2022-11-24T19:36:20.701Z,7.10
2022-11-24T19:41:26.774Z,7.30
2022-11-24T19:46:30.423Z,7.40
2022-11-24T19:51:34.803Z,7.10
2022-11-24T19:56:40.474Z,6.70
2022-11-24T20:01:44.335Z,6.60
2022-11-24T20:06:48.336Z,6.70
2022-11-24T20:11:53.819Z,6.70
2022-11-24T20:16:58.283Z,6.80
2022-11-24T20:22:02.479Z,6.90
2022-11-24T20:27:07.530Z,6.90
2022-11-24T20:32:11.554Z,7.00
2022-11-24T20:37:16.006Z,7.00
2022-11-24T20:42:25.254Z,6.90
2022-11-24T20:47:30.749Z,6.60
2022-11-24T20:52:33.963Z,6.90
2022-11-24T20:57:38.524Z,7.20
2022-11-24T21:02:41.959Z,6.90
2022-11-24T21:07:46.981Z,7.10
2022-11-24T21:12:51.976Z,6.80
2022-11-24T21:17:55.586Z,6.90
2022-11-24T21:22:59.253Z,6.80
2022-11-24T21:28:04.249Z,7.20
2022-11-24T21:33:09.408Z,7.20
2022-11-24T21:38:12.965Z,7.60
2022-11-24T21:43:18.278Z,7.40
2022-11-24T21:48:21.758Z,6.90
2022-11-24T21:53:25.375Z,6.90
2022-11-24T21:58:30.981Z,6.70
2022-11-24T22:03:34.397Z,7.30
2022-11-24T22:08:37.655Z,7.50
2022-11-24T22:13:42.326Z,7.60
2022-11-24T22:18:45.850Z,7.60
2022-11-24T22:29:24.746Z,7.00
2022-11-24T22:34:28.422Z,7.20
2022-11-24T22:39:31.813Z,7.00
2022-11-24T22:44:36.926Z,6.90
2022-11-24T22:49:44.782Z,7.00
2022-11-24T22:54:48.524Z,7.20
2022-11-24T22:59:54.152Z,7.00
2022-11-24T23:04:57.655Z,6.70
2022-11-24T23:10:04.208Z,6.90
2022-11-24T23:15:11.349Z,7.10
2022-11-24T23:20:15.925Z,7.50
2022-11-24T23:25:21.032Z,7.30
2022-11-24T23:30:29.188Z,7.70
2022-11-24T23:35:33.517Z,7.60
2022-11-24T23:40:37.164Z,7.00
2022-11-24T23:45:42.195Z,7.00
2022-11-24T23:50:45.508Z,7.20
2022-11-24T23:55:54.323Z,7.40
